CheckWX is a tool to help pilots better visualize weather data.  It is not intended as a substitute for an official pre-flight weather briefing.

12:39:54 UTC

CYMA TAF
Mayo Airport
Mayo, Canada
TAF CYMA 221138Z 2212/2224 03008KT P6SM FEW080 RMK NXT FCST BY 221800Z

Mar-22@
12:00 UTC

Mar-22 @ 12:00 UTC

Mar-23@
00:00 UTC

Mar-23 @ 00:00 UTC

TAF CYMA 221138Z 2212/2224 03008KT P6SM FEW080 RMK NXT FCST BY 221800Z
Wind
  • 030° at 8 KTS
Cloud Levels
  • Few at 8,000' AGL